HKJKDNAA

Guest
Details From HKJK - Nairobi Jomo Kanyatta Intl
To DNAA - Nnamdi Azikiwe Intl
Flight Number -
Tags Generated
Created
Modified
Stats Distance 1,882 nm / 3,486 km
Max Altitude 0 ft / 0 m
Waypoints 4
Social Downloads 3
Likes 0
Share VATSIM

Download

Looking for another format? Having issues loading an existing format? Contact us
Advertisement - Login to hide

Notes

Generated

Route

HKJK GANOK AG DNAA

ID Type Via Altitude Latitude Longitude Leg Dist Tot Dist Heading (true) Name
O HKJK APT - 0 ft / 0 m -1.32774˚ 36.91612˚ - 0 nm - -
GANOK FIX - 0 ft / 0 m 1.14891˚ 29.42159˚ 474 nm 474 nm 288° / 288° -
AG NDB - 0 ft / 0 m 9.02804˚ 7.27705˚ 1405 nm 1879 nm 290° / 288° ABUJA NDB
O DNAA APT - 0 ft / 0 m 8.99344˚ 7.25374˚ 2 nm 1882 nm 214° / 214° -

Altitude Profile

Advertisement - Login to hide

Weather


0- 5 10 15 20 25 30 35+ Temperature / ° C

Clouds and Precipitation
Forecast for 2017-12-11 12:00 UTC. Updated 14 minutes ago

Ground ~20,000 ft ~40,000 ft Winds

HKJK

Details ICAO HKJK (NBO)
Name Nairobi Jomo Kanyatta Intl
Region Kenya
Timezone Africa/Nairobi (UTC+3.0)
Stats Elevation 5,330 ft / 1,625 m (AMSL)
Location -1.317073° 36.930757°
Runways 1
Magnetic Variation 0.575° E

METAR

HKJK 110700Z 05009KT 010V070 9999 SCT021 BKN250 20/11 Q1024

Decode

TAF

TAF TAF HKJK 110500Z 1106/1212 05010KT 9999 FEW021 BECMG 1108/1111 05015KT BKN025 BECMG 1120/1123 CAVOK TEMPO 1200/1206 FEW006 BKN090

Decode

Departure Runways

ID Width Length Bearing (true) Bearing (mag) Surface Threshold Offset Overrun Length
06 148 ft / 45 m 13,215 ft / 4,028 m 53.90° 53.32° Asphalt 0 ft / 0 m 194 ft / 59 m
24 148 ft / 45 m 13,215 ft / 4,028 m 233.90° 233.32° Asphalt 0 ft / 0 m 197 ft / 60 m

DNAA

Details ICAO DNAA (ABV)
Name NNAMDI AZIKIWE INTL
Region Nigeria
Timezone Africa/Lagos (UTC+1.0)
Stats Elevation 1,123 ft / 342 m (AMSL)
Location 9.006790° 7.263171°
Runways 1
Magnetic Variation 0.815° W

METAR

Not found

TAF

TAF TAF DNAA 102140Z 1100/1206 05008KT 1200 HZ BECMG 1110/1112 1500

Decode

Destination Runways

ID Width Length Bearing (true) Bearing (mag) Surface Threshold Offset Overrun Length
04 197 ft / 60 m 11,883 ft / 3,622 m 34.91° 35.73° Asphalt 0 ft / 0 m 210 ft / 64 m
22 197 ft / 60 m 11,883 ft / 3,622 m 214.91° 215.73° Asphalt 0 ft / 0 m 210 ft / 64 m

Approach Navaids

Runway Type Ident Frequency Range Bearing (true) Bearing (mag) Slope Elevation
04 Localiser IAC 111.90 MHz 18 nm / 33 km 34.91° 35.73° - 1,224 ft / 373 m (AMSL)
04 Glidescope IAC 111.90 MHz 10 nm / 19 km 34.91° 35.73° 3.00° 1,211 ft / 369 m (AMSL)
04 DME IAC 111.90 MHz 18 nm / 33 km - - - 1,224 ft / 373 m (AMSL)
22 Localiser IAB 109.30 MHz 18 nm / 33 km 214.91° 215.73° - 1,175 ft / 358 m (AMSL)
22 Glidescope IAB 109.30 MHz 10 nm / 19 km 214.91° 215.73° 3.00° 1,243 ft / 379 m (AMSL)
22 DME IAB 109.30 MHz 18 nm / 33 km - - - 1,191 ft / 363 m (AMSL)

Popular Alternatives